N15TB KSAN-KBUR
Flight info
| Callsign | N15TB |
|---|---|
| Flight time | 0h 41m |
| Altitude | 16000 |
| Route | CWARD2 LAX SILEX |
| Aircraft | TBM8/L-SCFGRWY/S |
Departure
| Time | 2026-04-26 23:28 |
|---|---|
| Airport | San Diego International Airport (KSAN) |
Arrival
| Time | 2026-04-27 00:09 |
|---|---|
| Airport | Hollywood Burbank/Bob Hope Airport (KBUR) |
| Time | Latitude | Longitude | Altitude | Speed | Heading |
|---|---|---|---|---|---|
| 2026-04-26 23:11 | 32.73321 | -117.17770 | 18 ft | 0 kts | 176° |
| 2026-04-26 23:21 | 32.73312 | -117.17777 | 18 ft | 2 kts | 248° |
| 2026-04-26 23:21 | 32.73324 | -117.17811 | 18 ft | 4 kts | 296° |
| 2026-04-26 23:21 | 32.73347 | -117.17865 | 19 ft | 11 kts | 297° |
| 2026-04-26 23:22 | 32.73341 | -117.17957 | 20 ft | 9 kts | 202° |
| 2026-04-26 23:22 | 32.73253 | -117.17967 | 17 ft | 14 kts | 148° |
| 2026-04-26 23:22 | 32.73215 | -117.17896 | 17 ft | 7 kts | 105° |
| 2026-04-26 23:22 | 32.73201 | -117.17835 | 17 ft | 8 kts | 104° |
| 2026-04-26 23:23 | 32.73185 | -117.17769 | 18 ft | 9 kts | 108° |
| 2026-04-26 23:23 | 32.73165 | -117.17688 | 18 ft | 9 kts | 103° |
| 2026-04-26 23:23 | 32.73152 | -117.17626 | 17 ft | 7 kts | 115° |
| 2026-04-26 23:23 | 32.73128 | -117.17581 | 17 ft | 6 kts | 135° |
| 2026-04-26 23:24 | 32.73108 | -117.17562 | 17 ft | 2 kts | 144° |
| 2026-04-26 23:24 | 32.73106 | -117.17561 | 17 ft | 0 kts | 144° |
| 2026-04-26 23:24 | 32.73105 | -117.17560 | 17 ft | 0 kts | 144° |
| 2026-04-26 23:26 | 32.73083 | -117.17541 | 17 ft | 17 kts | 148° |
| 2026-04-26 23:26 | 32.73022 | -117.17545 | 18 ft | 8 kts | 231° |
| 2026-04-26 23:27 | 32.73017 | -117.17580 | 17 ft | 0 kts | 284° |
| 2026-04-26 23:27 | 32.73021 | -117.17600 | 17 ft | 15 kts | 284° |
| 2026-04-26 23:27 | 32.73113 | -117.17963 | 14 ft | 75 kts | 287° |
| 2026-04-26 23:27 | 32.73228 | -117.18413 | 116 ft | 94 kts | 285° |
| 2026-04-26 23:28 | 32.73496 | -117.19610 | 391 ft | 129 kts | 282° |
| 2026-04-26 23:28 | 32.73649 | -117.20323 | 549 ft | 140 kts | 282° |
| 2026-04-26 23:28 | 32.73889 | -117.21427 | 1068 ft | 136 kts | 283° |
| 2026-04-26 23:28 | 32.74437 | -117.22750 | 1724 ft | 143 kts | 320° |
| 2026-04-26 23:29 | 32.75254 | -117.23418 | 2203 ft | 142 kts | 309° |
| 2026-04-26 23:29 | 32.75645 | -117.24051 | 2532 ft | 140 kts | 300° |
| 2026-04-26 23:29 | 32.76192 | -117.25013 | 2998 ft | 141 kts | 301° |
| 2026-04-26 23:29 | 32.76738 | -117.25987 | 3499 ft | 142 kts | 301° |
| 2026-04-26 23:30 | 32.77279 | -117.26970 | 4033 ft | 143 kts | 300° |
| 2026-04-26 23:30 | 32.77821 | -117.27965 | 4540 ft | 144 kts | 300° |
| 2026-04-26 23:30 | 32.78367 | -117.28965 | 5110 ft | 144 kts | 300° |
| 2026-04-26 23:30 | 32.78912 | -117.29967 | 5604 ft | 145 kts | 300° |
| 2026-04-26 23:31 | 32.79456 | -117.30965 | 6100 ft | 146 kts | 300° |
| 2026-04-26 23:31 | 32.80032 | -117.31958 | 6588 ft | 147 kts | 305° |
| 2026-04-26 23:31 | 32.80670 | -117.32925 | 7062 ft | 148 kts | 303° |
| 2026-04-26 23:31 | 32.81290 | -117.33896 | 7529 ft | 148 kts | 303° |
| 2026-04-26 23:32 | 32.81918 | -117.34874 | 7969 ft | 151 kts | 303° |
| 2026-04-26 23:32 | 32.82610 | -117.35956 | 8000 ft | 177 kts | 303° |
| 2026-04-26 23:32 | 32.83401 | -117.37182 | 8006 ft | 196 kts | 304° |
| 2026-04-26 23:32 | 32.84269 | -117.38526 | 8002 ft | 212 kts | 304° |
| 2026-04-26 23:33 | 32.85195 | -117.39959 | 8000 ft | 223 kts | 304° |
| 2026-04-26 23:33 | 32.86155 | -117.41450 | 7984 ft | 231 kts | 304° |
| 2026-04-26 23:33 | 32.87143 | -117.42982 | 7984 ft | 236 kts | 304° |
| 2026-04-26 23:33 | 32.88147 | -117.44540 | 7985 ft | 239 kts | 304° |
| 2026-04-26 23:34 | 32.89146 | -117.46093 | 7985 ft | 240 kts | 304° |
| 2026-04-26 23:34 | 32.90179 | -117.47697 | 7985 ft | 241 kts | 304° |
| 2026-04-26 23:34 | 32.91185 | -117.49265 | 7984 ft | 242 kts | 304° |
| 2026-04-26 23:34 | 32.92213 | -117.50861 | 7986 ft | 242 kts | 304° |
| 2026-04-26 23:35 | 32.93236 | -117.52456 | 7986 ft | 242 kts | 304° |
| 2026-04-26 23:35 | 32.94258 | -117.54046 | 7983 ft | 242 kts | 304° |
| 2026-04-26 23:35 | 32.95283 | -117.55643 | 7982 ft | 242 kts | 304° |
| 2026-04-26 23:35 | 32.96304 | -117.57235 | 7984 ft | 242 kts | 304° |
| 2026-04-26 23:36 | 32.97326 | -117.58828 | 7981 ft | 242 kts | 304° |
| 2026-04-26 23:36 | 32.98350 | -117.60425 | 7978 ft | 242 kts | 304° |
| 2026-04-26 23:36 | 32.99372 | -117.62018 | 7983 ft | 242 kts | 304° |
| 2026-04-26 23:36 | 33.00392 | -117.63615 | 7980 ft | 242 kts | 304° |
| 2026-04-26 23:37 | 33.01414 | -117.65208 | 7997 ft | 241 kts | 304° |
| 2026-04-26 23:37 | 33.02430 | -117.66798 | 7999 ft | 242 kts | 304° |
| 2026-04-26 23:37 | 33.03450 | -117.68390 | 8002 ft | 242 kts | 304° |
| 2026-04-26 23:37 | 33.04457 | -117.69967 | 8003 ft | 241 kts | 304° |
| 2026-04-26 23:38 | 33.05487 | -117.71577 | 8004 ft | 242 kts | 304° |
| 2026-04-26 23:38 | 33.06546 | -117.73143 | 8001 ft | 243 kts | 311° |
| 2026-04-26 23:38 | 33.07840 | -117.74412 | 8002 ft | 244 kts | 317° |
| 2026-04-26 23:38 | 33.09130 | -117.75726 | 8000 ft | 244 kts | 315° |
| 2026-04-26 23:39 | 33.10412 | -117.77060 | 8004 ft | 244 kts | 316° |
| 2026-04-26 23:39 | 33.11709 | -117.78375 | 8004 ft | 244 kts | 316° |
| 2026-04-26 23:39 | 33.13002 | -117.79688 | 8002 ft | 244 kts | 316° |
| 2026-04-26 23:39 | 33.14298 | -117.81004 | 8004 ft | 244 kts | 316° |
| 2026-04-26 23:40 | 33.15574 | -117.82306 | 8004 ft | 244 kts | 316° |
| 2026-04-26 23:40 | 33.16882 | -117.83637 | 8007 ft | 244 kts | 316° |
| 2026-04-26 23:40 | 33.18170 | -117.84949 | 8007 ft | 244 kts | 316° |
| 2026-04-26 23:40 | 33.19563 | -117.86087 | 8003 ft | 249 kts | 332° |
| 2026-04-26 23:41 | 33.21261 | -117.86663 | 8002 ft | 253 kts | 344° |
| 2026-04-26 23:41 | 33.22962 | -117.87073 | 8006 ft | 253 kts | 343° |
| 2026-04-26 23:41 | 33.24678 | -117.87514 | 8002 ft | 253 kts | 343° |
| 2026-04-26 23:41 | 33.26406 | -117.87940 | 8007 ft | 253 kts | 343° |
| 2026-04-26 23:42 | 33.28132 | -117.88368 | 8008 ft | 253 kts | 343° |
| 2026-04-26 23:42 | 33.31583 | -117.89226 | 8009 ft | 253 kts | 343° |
| 2026-04-26 23:42 | 33.33303 | -117.89656 | 8007 ft | 253 kts | 343° |
| 2026-04-26 23:43 | 33.35029 | -117.90084 | 8009 ft | 253 kts | 343° |
| 2026-04-26 23:43 | 33.36752 | -117.90516 | 8010 ft | 253 kts | 343° |
| 2026-04-26 23:43 | 33.38418 | -117.91117 | 8003 ft | 247 kts | 329° |
| 2026-04-26 23:43 | 33.39818 | -117.92263 | 8005 ft | 243 kts | 317° |
| 2026-04-26 23:44 | 33.41143 | -117.93526 | 8007 ft | 244 kts | 318° |
| 2026-04-26 23:44 | 33.42482 | -117.94774 | 8006 ft | 244 kts | 318° |
| 2026-04-26 23:44 | 33.43808 | -117.96030 | 8007 ft | 244 kts | 317° |
| 2026-04-26 23:44 | 33.45140 | -117.97291 | 8010 ft | 244 kts | 317° |
| 2026-04-26 23:45 | 33.46467 | -117.98550 | 8011 ft | 244 kts | 317° |
| 2026-04-26 23:45 | 33.47799 | -117.99808 | 8008 ft | 244 kts | 318° |
| 2026-04-26 23:45 | 33.49127 | -118.01066 | 8007 ft | 244 kts | 317° |
| 2026-04-26 23:45 | 33.50456 | -118.02326 | 8007 ft | 244 kts | 318° |
| 2026-04-26 23:46 | 33.51772 | -118.03572 | 8008 ft | 244 kts | 318° |
| 2026-04-26 23:46 | 33.53102 | -118.04834 | 8009 ft | 244 kts | 318° |
| 2026-04-26 23:46 | 33.54432 | -118.06094 | 8009 ft | 244 kts | 317° |
| 2026-04-26 23:46 | 33.55763 | -118.07358 | 8009 ft | 244 kts | 318° |
| 2026-04-26 23:47 | 33.57092 | -118.08618 | 8010 ft | 244 kts | 318° |
| 2026-04-26 23:47 | 33.58419 | -118.09880 | 7987 ft | 244 kts | 318° |
| 2026-04-26 23:47 | 33.59750 | -118.11143 | 7987 ft | 244 kts | 318° |
| 2026-04-26 23:47 | 33.61078 | -118.12406 | 7984 ft | 244 kts | 318° |
| 2026-04-26 23:48 | 33.62407 | -118.13670 | 7981 ft | 244 kts | 318° |
| 2026-04-26 23:48 | 33.63736 | -118.14931 | 7980 ft | 244 kts | 318° |
| 2026-04-26 23:48 | 33.65068 | -118.16202 | 7979 ft | 244 kts | 318° |
| 2026-04-26 23:48 | 33.66384 | -118.17452 | 7997 ft | 244 kts | 318° |
| 2026-04-26 23:49 | 33.67710 | -118.18717 | 7998 ft | 244 kts | 318° |
| 2026-04-26 23:49 | 33.69041 | -118.19983 | 8002 ft | 244 kts | 318° |
| 2026-04-26 23:49 | 33.70367 | -118.21248 | 7998 ft | 243 kts | 318° |
| 2026-04-26 23:49 | 33.71693 | -118.22512 | 8001 ft | 243 kts | 318° |
| 2026-04-26 23:50 | 33.73012 | -118.23771 | 8039 ft | 243 kts | 318° |
| 2026-04-26 23:50 | 33.74342 | -118.25040 | 8036 ft | 243 kts | 318° |
| 2026-04-26 23:50 | 33.75669 | -118.26306 | 8037 ft | 244 kts | 318° |
| 2026-04-26 23:50 | 33.76994 | -118.27574 | 8038 ft | 244 kts | 318° |
| 2026-04-26 23:51 | 33.78323 | -118.28841 | 8038 ft | 244 kts | 318° |
| 2026-04-26 23:51 | 33.79658 | -118.30119 | 8044 ft | 244 kts | 318° |
| 2026-04-26 23:51 | 33.80989 | -118.31389 | 8041 ft | 244 kts | 318° |
| 2026-04-26 23:51 | 33.82302 | -118.32645 | 8041 ft | 244 kts | 318° |
| 2026-04-26 23:52 | 33.83648 | -118.33933 | 8046 ft | 244 kts | 318° |
| 2026-04-26 23:52 | 33.84956 | -118.35186 | 8045 ft | 244 kts | 318° |
| 2026-04-26 23:52 | 33.86287 | -118.36461 | 8045 ft | 244 kts | 318° |
| 2026-04-26 23:52 | 33.87619 | -118.37736 | 8034 ft | 244 kts | 318° |
| 2026-04-26 23:53 | 33.88932 | -118.38994 | 7995 ft | 246 kts | 318° |
| 2026-04-26 23:53 | 33.90308 | -118.40318 | 7600 ft | 256 kts | 318° |
| 2026-04-26 23:53 | 33.91690 | -118.41640 | 7231 ft | 249 kts | 318° |
| 2026-04-26 23:53 | 33.93020 | -118.42912 | 6859 ft | 239 kts | 319° |
| 2026-04-26 23:54 | 33.94404 | -118.43937 | 6496 ft | 225 kts | 329° |
| 2026-04-26 23:54 | 33.95730 | -118.44786 | 6106 ft | 209 kts | 327° |
| 2026-04-26 23:54 | 33.96942 | -118.45611 | 6021 ft | 190 kts | 326° |
| 2026-04-26 23:54 | 33.98061 | -118.46369 | 6004 ft | 179 kts | 327° |
| 2026-04-26 23:55 | 33.99122 | -118.47081 | 6010 ft | 172 kts | 327° |
| 2026-04-26 23:55 | 34.00161 | -118.47776 | 6017 ft | 169 kts | 327° |
| 2026-04-26 23:55 | 34.01189 | -118.48468 | 6007 ft | 169 kts | 327° |
| 2026-04-26 23:55 | 34.02208 | -118.49147 | 6007 ft | 167 kts | 327° |
| 2026-04-26 23:56 | 34.03227 | -118.49832 | 6005 ft | 167 kts | 327° |
| 2026-04-26 23:56 | 34.04227 | -118.50506 | 6011 ft | 166 kts | 324° |
| 2026-04-26 23:56 | 34.04897 | -118.51571 | 6022 ft | 162 kts | 283° |
| 2026-04-26 23:56 | 34.05268 | -118.52836 | 6014 ft | 163 kts | 307° |
| 2026-04-26 23:57 | 34.06156 | -118.53700 | 6012 ft | 167 kts | 330° |
| 2026-04-26 23:57 | 34.07274 | -118.54175 | 5810 ft | 178 kts | 339° |
| 2026-04-26 23:57 | 34.08496 | -118.54647 | 5437 ft | 189 kts | 338° |
| 2026-04-26 23:57 | 34.09772 | -118.55124 | 5068 ft | 193 kts | 338° |
| 2026-04-26 23:58 | 34.11071 | -118.55594 | 4693 ft | 195 kts | 338° |
| 2026-04-26 23:58 | 34.12349 | -118.56041 | 4413 ft | 193 kts | 338° |
| 2026-04-26 23:58 | 34.13625 | -118.56585 | 4121 ft | 191 kts | 332° |
| 2026-04-26 23:58 | 34.14827 | -118.57203 | 3990 ft | 183 kts | 332° |
| 2026-04-26 23:59 | 34.15962 | -118.57775 | 3987 ft | 175 kts | 331° |
| 2026-04-26 23:59 | 34.17040 | -118.58304 | 3977 ft | 159 kts | 332° |
| 2026-04-26 23:59 | 34.18016 | -118.58815 | 3978 ft | 147 kts | 322° |
| 2026-04-26 23:59 | 34.18850 | -118.59472 | 3981 ft | 139 kts | 315° |
| 2026-04-27 00:00 | 34.19247 | -118.60424 | 3982 ft | 125 kts | 264° |
| 2026-04-27 00:00 | 34.18842 | -118.61251 | 3976 ft | 113 kts | 229° |
| 2026-04-27 00:00 | 34.18312 | -118.61898 | 3978 ft | 105 kts | 231° |
| 2026-04-27 00:00 | 34.18011 | -118.62623 | 3986 ft | 98 kts | 271° |
| 2026-04-27 00:01 | 34.18042 | -118.63445 | 3983 ft | 102 kts | 266° |
| 2026-04-27 00:01 | 34.18036 | -118.64365 | 4001 ft | 116 kts | 268° |
| 2026-04-27 00:01 | 34.18017 | -118.65376 | 4004 ft | 123 kts | 267° |
| 2026-04-27 00:01 | 34.17984 | -118.66438 | 4000 ft | 126 kts | 268° |
| 2026-04-27 00:02 | 34.17969 | -118.67508 | 3996 ft | 128 kts | 275° |
| 2026-04-27 00:02 | 34.18456 | -118.68390 | 4002 ft | 141 kts | 324° |
| 2026-04-27 00:02 | 34.19473 | -118.68435 | 3999 ft | 162 kts | 16° |
| 2026-04-27 00:02 | 34.20291 | -118.67447 | 3874 ft | 179 kts | 64° |
| 2026-04-27 00:03 | 34.20428 | -118.65941 | 3713 ft | 182 kts | 98° |
| 2026-04-27 00:03 | 34.20249 | -118.64455 | 3698 ft | 175 kts | 102° |
| 2026-04-27 00:03 | 34.20133 | -118.63020 | 3695 ft | 170 kts | 94° |
| 2026-04-27 00:03 | 34.20097 | -118.61608 | 3688 ft | 166 kts | 94° |
| 2026-04-27 00:04 | 34.20064 | -118.60224 | 3689 ft | 164 kts | 94° |
| 2026-04-27 00:04 | 34.20058 | -118.58847 | 3681 ft | 163 kts | 94° |
| 2026-04-27 00:04 | 34.20032 | -118.57514 | 3678 ft | 154 kts | 94° |
| 2026-04-27 00:04 | 34.20026 | -118.56253 | 3680 ft | 147 kts | 93° |
| 2026-04-27 00:05 | 34.20004 | -118.55036 | 3674 ft | 144 kts | 94° |
| 2026-04-27 00:05 | 34.19994 | -118.53797 | 3523 ft | 151 kts | 94° |
| 2026-04-27 00:05 | 34.19975 | -118.52499 | 3324 ft | 157 kts | 95° |
| 2026-04-27 00:05 | 34.19958 | -118.51193 | 3111 ft | 155 kts | 94° |
| 2026-04-27 00:06 | 34.19950 | -118.49912 | 2904 ft | 148 kts | 95° |
| 2026-04-27 00:06 | 34.19930 | -118.48674 | 2702 ft | 148 kts | 96° |
| 2026-04-27 00:06 | 34.19917 | -118.47436 | 2510 ft | 145 kts | 96° |
| 2026-04-27 00:06 | 34.19902 | -118.46240 | 2314 ft | 140 kts | 94° |
| 2026-04-27 00:07 | 34.19889 | -118.45105 | 2126 ft | 134 kts | 95° |
| 2026-04-27 00:07 | 34.19869 | -118.43984 | 1929 ft | 130 kts | 96° |
| 2026-04-27 00:07 | 34.19888 | -118.42875 | 1753 ft | 134 kts | 91° |
| 2026-04-27 00:07 | 34.19906 | -118.41802 | 1633 ft | 126 kts | 97° |
| 2026-04-27 00:08 | 34.19891 | -118.40746 | 1529 ft | 126 kts | 94° |
| 2026-04-27 00:08 | 34.19912 | -118.39815 | 1412 ft | 95 kts | 98° |
| 2026-04-27 00:08 | 34.19887 | -118.39057 | 1257 ft | 90 kts | 98° |
| 2026-04-27 00:08 | 34.19866 | -118.38261 | 1144 ft | 97 kts | 101° |
| 2026-04-27 00:09 | 34.19794 | -118.37516 | 847 ft | 81 kts | 90° |
| 2026-04-27 00:09 | 34.19790 | -118.36867 | 742 ft | 78 kts | 89° |
| 2026-04-27 00:09 | 34.19785 | -118.36395 | 720 ft | 42 kts | 91° |
| 2026-04-27 00:09 | 34.19778 | -118.36204 | 717 ft | 10 kts | 89° |
| 2026-04-27 00:10 | 34.19783 | -118.36072 | 717 ft | 16 kts | 78° |
| 2026-04-27 00:10 | 34.19850 | -118.36025 | 717 ft | 7 kts | 358° |
| 2026-04-27 00:10 | 34.19853 | -118.36025 | 717 ft | 0 kts | 358° |
| 2026-04-27 00:11 | 34.19887 | -118.36026 | 717 ft | 18 kts | 358° |
| 2026-04-27 00:11 | 34.19945 | -118.36049 | 716 ft | 0 kts | 331° |